createdAt,value
2019-04-20T00:01:31.724Z,8.98
2019-04-20T00:03:59.323Z,8.80
2019-04-20T00:06:31.667Z,8.60
2019-04-20T00:09:10.335Z,8.80
2019-04-20T00:11:49.391Z,8.70
2019-04-20T00:14:15.402Z,9.20
2019-04-20T00:16:42.026Z,8.57
2019-04-20T00:19:17.327Z,9.10
2019-04-20T00:21:56.429Z,8.83
2019-04-20T00:24:33.635Z,9.13
2019-04-20T00:27:22.136Z,8.80
2019-04-20T00:29:52.381Z,8.97
2019-04-20T00:32:18.869Z,9.88
2019-04-20T00:34:43.636Z,8.80
2019-04-20T00:37:12.941Z,9.45
2019-04-20T00:39:44.761Z,8.73
2019-04-20T00:42:17.885Z,9.58
2019-04-20T00:44:57.633Z,9.13
2019-04-20T00:47:34.210Z,9.23
2019-04-20T00:50:06.568Z,9.40
2019-04-20T00:52:45.226Z,9.13
2019-04-20T00:55:00.123Z,8.90
2019-04-20T00:57:41.784Z,11.70
2019-04-20T01:00:23.109Z,9.07
2019-04-20T01:02:49.524Z,9.37
2019-04-20T01:05:37.898Z,9.43
2019-04-20T01:08:09.435Z,8.77
2019-04-20T01:10:47.266Z,9.93
2019-04-20T01:13:19.815Z,9.25
2019-04-20T01:15:55.167Z,9.87
2019-04-20T01:18:20.057Z,9.60
2019-04-20T01:20:51.460Z,9.73
2019-04-20T01:23:29.128Z,10.80
2019-04-20T01:26:01.831Z,10.03
2019-04-20T01:28:47.402Z,9.50
2019-04-20T01:31:17.757Z,10.35
2019-04-20T01:33:49.196Z,9.87
2019-04-20T01:36:35.079Z,9.83
2019-04-20T01:38:57.839Z,13.50
2019-04-20T01:41:18.220Z,9.90
2019-04-20T01:43:50.191Z,9.80
2019-04-20T01:46:28.025Z,10.82
2019-04-20T01:49:00.201Z,10.53
2019-04-20T01:51:37.331Z,10.70
2019-04-20T01:54:26.092Z,10.10
2019-04-20T01:56:58.058Z,10.27
2019-04-20T01:59:44.055Z,10.45
2019-04-20T02:02:24.463Z,12.33
2019-04-20T02:05:11.357Z,9.60
2019-04-20T02:07:40.000Z,10.33
2019-04-20T02:10:09.780Z,10.40
2019-04-20T02:12:42.279Z,10.47
2019-04-20T02:15:20.052Z,11.45
2019-04-20T02:17:59.359Z,11.60
2019-04-20T02:20:37.597Z,11.25
2019-04-20T02:23:06.562Z,12.03
2019-04-20T02:25:24.925Z,11.03
2019-04-20T02:28:14.783Z,12.73
2019-04-20T02:31:10.484Z,10.83
2019-04-20T02:33:47.422Z,11.07
2019-04-20T02:36:25.070Z,10.50
2019-04-20T02:41:57.531Z,10.35
2019-04-20T02:46:55.686Z,10.72
2019-04-20T02:49:33.126Z,10.17
2019-04-20T02:51:55.906Z,10.90
2019-04-20T02:57:05.326Z,11.43
2019-04-20T02:59:54.057Z,11.10
2019-04-20T03:01:55.231Z,11.43
2019-04-20T03:04:20.247Z,12.47
2019-04-20T03:07:01.037Z,10.50
2019-04-20T03:09:36.211Z,11.00
2019-04-20T03:12:10.846Z,10.40
2019-04-20T03:14:35.218Z,11.43
2019-04-20T03:17:15.538Z,11.13
2019-04-20T03:19:40.902Z,11.48
2019-04-20T03:22:24.645Z,10.80
2019-04-20T03:24:54.017Z,10.53
2019-04-20T03:27:46.208Z,10.90
2019-04-20T03:33:44.584Z,11.50
2019-04-20T03:36:07.936Z,11.65
2019-04-20T03:38:26.288Z,11.50
2019-04-20T03:40:50.693Z,11.50
2019-04-20T03:43:12.287Z,10.85
2019-04-20T03:45:51.756Z,11.50
2019-04-20T03:48:35.902Z,10.95
2019-04-20T03:51:07.283Z,11.30
2019-04-20T03:53:43.566Z,11.28
2019-04-20T03:56:34.392Z,12.57
2019-04-20T03:59:20.182Z,11.57
2019-04-20T04:02:25.173Z,10.90
2019-04-20T04:05:03.332Z,11.43
2019-04-20T04:07:19.543Z,11.27
2019-04-20T04:10:02.470Z,10.90
2019-04-20T04:13:09.602Z,12.55
2019-04-20T04:15:48.765Z,11.40
2019-04-20T04:18:23.009Z,10.30
2019-04-20T04:20:54.071Z,11.50
2019-04-20T04:23:36.671Z,11.25
2019-04-20T04:26:08.513Z,10.87
2019-04-20T04:28:43.302Z,11.00
2019-04-20T04:31:22.953Z,11.30
2019-04-20T04:33:59.354Z,12.03
2019-04-20T04:36:20.842Z,11.85
2019-04-20T04:39:05.449Z,13.87
2019-04-20T04:41:31.079Z,11.83
2019-04-20T04:44:04.510Z,14.97
2019-04-20T04:48:49.221Z,12.00
2019-04-20T04:56:21.451Z,12.58
2019-04-20T05:02:03.375Z,11.63
2019-04-20T05:04:58.510Z,12.37
2019-04-20T05:07:23.021Z,13.00
2019-04-20T05:12:21.492Z,13.65
2019-04-20T05:22:39.758Z,12.80
2019-04-20T05:30:33.606Z,13.37
2019-04-20T05:33:09.162Z,13.00
2019-04-20T05:36:00.912Z,12.73
2019-04-20T05:38:39.779Z,12.85
2019-04-20T05:41:04.626Z,13.33
2019-04-20T05:43:38.605Z,12.63
2019-04-20T05:46:18.407Z,14.73
2019-04-20T05:48:53.246Z,14.13
2019-04-20T05:51:26.907Z,14.37
2019-04-20T05:54:01.140Z,14.60
2019-04-20T05:56:33.074Z,15.20
2019-04-20T05:58:59.907Z,14.70
2019-04-20T06:01:42.480Z,16.73
2019-04-20T06:04:01.650Z,17.93
2019-04-20T06:06:40.411Z,17.23
2019-04-20T06:09:21.038Z,17.50
2019-04-20T06:11:56.280Z,15.97
2019-04-20T06:14:19.391Z,19.17
2019-04-20T06:17:10.805Z,16.20
2019-04-20T06:19:39.240Z,17.12
2019-04-20T06:53:41.205Z,13.67
2019-04-20T06:56:36.791Z,14.10
2019-04-20T07:02:03.947Z,14.40
2019-04-20T07:07:10.166Z,13.97
2019-04-20T07:14:32.891Z,14.00
2019-04-20T07:22:46.357Z,15.57
2019-04-20T07:30:24.111Z,16.23
2019-04-20T07:35:30.450Z,15.17
2019-04-20T07:40:28.801Z,15.08
2019-04-20T07:43:14.645Z,14.67
2019-04-20T07:46:11.743Z,15.20
2019-04-20T07:48:36.872Z,14.50
2019-04-20T07:51:04.827Z,15.27
2019-04-20T07:53:42.174Z,16.93
2019-04-20T07:56:25.377Z,14.80
2019-04-20T07:58:41.388Z,16.90
2019-04-20T08:01:43.129Z,14.00
2019-04-20T08:22:02.498Z,14.33
2019-04-20T08:28:39.172Z,14.93
2019-04-20T08:31:32.277Z,14.98
2019-04-20T08:36:57.108Z,14.90
2019-04-20T08:42:24.779Z,13.67
2019-04-20T08:45:08.369Z,14.80
2019-04-20T08:47:45.863Z,15.55
2019-04-20T08:53:17.360Z,15.10
2019-04-20T09:00:19.144Z,15.58
2019-04-20T09:05:30.276Z,14.75
2019-04-20T09:18:17.848Z,15.27
2019-04-20T09:23:36.373Z,16.02
2019-04-20T09:26:14.943Z,18.47
2019-04-20T09:32:33.254Z,16.50
2019-04-20T09:42:47.026Z,14.43
2019-04-20T09:45:31.139Z,14.38
2019-04-20T09:47:57.115Z,16.97
2019-04-20T09:53:17.328Z,15.13
2019-04-20T09:58:12.580Z,15.80
2019-04-20T10:03:16.722Z,16.37
2019-04-20T10:08:21.873Z,15.53
2019-04-20T10:13:25.075Z,15.60
2019-04-20T10:21:09.653Z,18.23
2019-04-20T10:23:48.235Z,17.10
2019-04-20T10:26:22.759Z,19.15
2019-04-20T10:28:57.377Z,15.47
2019-04-20T10:31:48.296Z,15.80
2019-04-20T10:34:15.697Z,15.10
2019-04-20T10:37:09.376Z,14.53
2019-04-20T10:42:14.380Z,17.17
2019-04-20T10:47:15.230Z,15.97
2019-04-20T10:52:17.857Z,15.40
2019-04-20T10:54:50.260Z,14.10
2019-04-20T10:57:21.674Z,15.00
2019-04-20T10:59:59.388Z,14.33
2019-04-20T11:02:35.133Z,15.33
2019-04-20T11:05:08.559Z,16.67
2019-04-20T11:11:01.300Z,14.37
2019-04-20T11:13:46.119Z,16.70
2019-04-20T11:16:24.703Z,16.40
2019-04-20T11:19:01.043Z,16.83
2019-04-20T11:21:34.354Z,14.13
2019-04-20T11:24:08.170Z,12.93
2019-04-20T11:26:41.445Z,13.27
2019-04-20T11:29:16.122Z,13.03
2019-04-20T11:31:51.536Z,11.90
2019-04-20T11:34:28.615Z,11.83
2019-04-20T11:36:52.986Z,11.97
2019-04-20T11:39:25.029Z,13.08
2019-04-20T11:41:56.194Z,12.00
2019-04-20T11:46:58.723Z,12.33
2019-04-20T11:49:31.064Z,12.83
2019-04-20T11:52:03.613Z,12.07
2019-04-20T11:54:34.993Z,10.37
2019-04-20T11:57:09.018Z,9.80
2019-04-20T11:59:39.338Z,10.10
2019-04-20T12:02:47.886Z,9.50
2019-04-20T12:05:28.136Z,9.48
2019-04-20T12:08:03.008Z,9.60
2019-04-20T12:13:14.454Z,10.13
2019-04-20T12:20:58.857Z,9.53
2019-04-20T12:28:43.373Z,10.38
2019-04-20T12:34:11.013Z,9.97
2019-04-20T12:39:31.407Z,11.23
2019-04-20T12:44:32.112Z,10.13
2019-04-20T12:49:37.862Z,10.37
2019-04-20T12:52:10.359Z,9.80
2019-04-20T12:54:44.527Z,11.08
2019-04-20T12:59:47.830Z,11.40
2019-04-20T13:02:19.672Z,9.93
2019-04-20T13:04:55.400Z,9.53
2019-04-20T13:09:54.837Z,11.03
2019-04-20T13:12:32.233Z,10.90
2019-04-20T13:15:26.649Z,11.57
2019-04-20T13:17:58.936Z,12.07
2019-04-20T13:20:30.324Z,10.03
2019-04-20T13:23:03.666Z,10.10
2019-04-20T13:25:35.012Z,11.50
2019-04-20T13:28:07.358Z,10.27
2019-04-20T13:30:39.769Z,10.23
2019-04-20T13:33:12.125Z,10.30
2019-04-20T13:35:44.195Z,11.53
2019-04-20T13:38:16.224Z,12.70
2019-04-20T13:43:17.605Z,10.45
2019-04-20T13:48:21.306Z,10.23
2019-04-20T13:53:23.398Z,9.88
2019-04-20T13:55:56.033Z,10.77
2019-04-20T13:58:45.712Z,11.50
2019-04-20T14:01:34.796Z,10.40
2019-04-20T14:04:05.352Z,10.17
2019-04-20T14:06:57.656Z,9.97
2019-04-20T14:09:30.654Z,11.43
2019-04-20T14:14:33.105Z,11.30
2019-04-20T14:19:34.827Z,10.87
2019-04-20T14:22:11.292Z,12.90
2019-04-20T14:27:12.991Z,12.30
2019-04-20T14:29:46.298Z,13.10
2019-04-20T14:32:18.816Z,12.33
2019-04-20T14:34:51.198Z,12.93
2019-04-20T14:37:24.800Z,21.02
2019-04-20T14:39:59.041Z,14.43
2019-04-20T14:42:40.380Z,12.00
2019-04-20T14:45:04.785Z,14.33
2019-04-20T14:47:36.176Z,12.63
2019-04-20T14:50:07.633Z,12.10
2019-04-20T14:52:39.695Z,14.93
2019-04-20T14:57:41.480Z,12.10
2019-04-20T15:00:37.958Z,11.97
2019-04-20T15:03:10.126Z,12.63
2019-04-20T15:10:40.583Z,12.27
2019-04-20T15:13:14.891Z,12.58
2019-04-20T15:18:15.555Z,12.93
2019-04-20T15:23:15.732Z,13.75
2019-04-20T15:28:18.657Z,15.55
2019-04-20T15:33:28.256Z,13.85
2019-04-20T15:36:04.236Z,12.87
2019-04-20T15:38:35.589Z,12.83
2019-04-20T15:41:08.762Z,16.40
2019-04-20T15:43:39.647Z,11.63
2019-04-20T15:48:40.240Z,11.97
2019-04-20T15:51:14.020Z,15.15
2019-04-20T15:53:47.429Z,11.40
2019-04-20T15:58:52.428Z,11.03
2019-04-20T16:01:28.178Z,10.90
2019-04-20T16:06:31.582Z,10.67
2019-04-20T16:11:35.170Z,11.23
2019-04-20T16:14:07.267Z,13.10
2019-04-20T16:16:38.464Z,12.60
2019-04-20T16:19:25.233Z,12.93
2019-04-20T16:21:43.678Z,10.80
2019-04-20T16:24:18.975Z,12.65
2019-04-20T16:27:13.737Z,10.77
2019-04-20T16:29:45.077Z,11.50
2019-04-20T16:32:16.501Z,12.37
2019-04-20T16:34:48.597Z,12.80
2019-04-20T16:37:20.240Z,11.80
2019-04-20T16:42:18.540Z,12.57
2019-04-20T16:44:49.724Z,12.63
2019-04-20T16:47:22.000Z,13.38
2019-04-20T16:49:53.325Z,13.53
2019-04-20T16:52:25.136Z,13.55
2019-04-20T16:54:57.626Z,12.77
2019-04-20T16:57:29.856Z,12.67
2019-04-20T17:00:03.103Z,16.13
2019-04-20T17:02:34.546Z,12.90
2019-04-20T17:05:07.276Z,18.47
2019-04-20T17:07:42.881Z,15.20
2019-04-20T17:10:16.015Z,13.68
2019-04-20T17:12:48.048Z,15.13
2019-04-20T17:15:21.467Z,12.93
2019-04-20T17:17:53.819Z,12.53
2019-04-20T17:20:28.982Z,12.07
2019-04-20T17:23:05.569Z,16.42
2019-04-20T17:25:35.163Z,18.10
2019-04-20T17:28:35.142Z,14.63
2019-04-20T17:31:19.958Z,13.40
2019-04-20T17:34:04.685Z,12.97
2019-04-20T17:36:30.931Z,12.07
2019-04-20T17:39:06.754Z,11.87
2019-04-20T17:41:59.283Z,16.30
2019-04-20T17:44:26.534Z,12.37
2019-04-20T17:46:52.136Z,13.23
2019-04-20T17:49:28.119Z,16.15
2019-04-20T17:52:12.240Z,15.73
2019-04-20T17:54:27.874Z,12.18
2019-04-20T17:57:00.272Z,12.13
2019-04-20T17:59:34.483Z,12.80
2019-04-20T18:03:00.636Z,11.97
2019-04-20T18:06:08.309Z,13.38
2019-04-20T18:08:39.482Z,14.50
2019-04-20T18:10:58.574Z,13.97
2019-04-20T18:13:27.615Z,13.03
2019-04-20T18:16:22.435Z,13.93
2019-04-20T18:19:07.739Z,12.20
2019-04-20T18:21:40.138Z,15.30
2019-04-20T18:24:15.786Z,19.62
2019-04-20T18:26:57.655Z,20.33
2019-04-20T18:29:37.272Z,18.90
2019-04-20T18:32:07.730Z,17.80
2019-04-20T18:34:57.249Z,18.20
2019-04-20T18:37:25.710Z,17.70
2019-04-20T18:40:03.925Z,18.67
2019-04-20T18:42:36.780Z,18.43
2019-04-20T18:45:21.656Z,19.67
2019-04-20T18:47:56.332Z,20.50
2019-04-20T18:50:19.480Z,22.90
2019-04-20T18:52:43.639Z,23.90
2019-04-20T18:55:23.500Z,23.07
2019-04-20T18:57:49.038Z,23.60
2019-04-20T19:00:26.165Z,25.05
2019-04-20T19:02:57.763Z,24.52
2019-04-20T19:05:27.883Z,23.53
2019-04-20T19:08:13.283Z,23.20
2019-04-20T19:11:00.041Z,25.67
2019-04-20T19:13:53.352Z,23.77
2019-04-20T19:16:59.741Z,25.70
2019-04-20T19:19:33.378Z,25.85
2019-04-20T19:21:56.254Z,24.90
2019-04-20T19:24:29.707Z,24.67
2019-04-20T19:27:06.639Z,24.57
2019-04-20T19:29:48.820Z,21.50
2019-04-20T19:32:24.967Z,20.80
2019-04-20T19:34:54.917Z,20.23
2019-04-20T19:37:24.255Z,23.95
2019-04-20T19:40:02.867Z,23.53
2019-04-20T19:42:34.678Z,23.20
2019-04-20T19:45:10.149Z,25.83
2019-04-20T19:47:42.952Z,23.43
2019-04-20T19:50:31.300Z,20.27
2019-04-20T19:52:57.820Z,19.63
2019-04-20T19:55:25.898Z,20.77
2019-04-20T19:57:56.615Z,21.37
2019-04-20T20:00:14.690Z,18.92
2019-04-20T20:02:46.076Z,19.23
2019-04-20T20:05:19.490Z,20.45
2019-04-20T20:07:56.509Z,21.97
2019-04-20T20:10:30.308Z,22.05
2019-04-20T20:13:00.371Z,21.07
2019-04-20T20:15:34.049Z,20.90
2019-04-20T20:18:23.134Z,19.47
2019-04-20T20:20:59.570Z,20.12
2019-04-20T20:23:27.948Z,19.40
2019-04-20T20:26:05.357Z,22.63
2019-04-20T20:28:57.799Z,19.43
2019-04-20T20:31:28.250Z,16.97
2019-04-20T20:34:10.912Z,18.30
2019-04-20T20:36:53.928Z,17.60
2019-04-20T20:39:24.138Z,15.00
2019-04-20T20:42:06.395Z,15.50
2019-04-20T20:44:37.806Z,15.40
2019-04-20T20:47:34.143Z,13.87
2019-04-20T20:50:21.987Z,17.20
2019-04-20T20:52:47.018Z,19.17
2019-04-20T20:55:19.478Z,21.00
2019-04-20T20:57:56.367Z,29.97
2019-04-20T21:00:38.825Z,35.67
2019-04-20T21:03:02.755Z,37.70
2019-04-20T21:05:45.356Z,39.60
2019-04-20T21:08:19.689Z,39.50
2019-04-20T21:11:15.208Z,31.83
2019-04-20T21:13:45.145Z,33.60
2019-04-20T21:16:19.716Z,23.92
2019-04-20T21:18:59.847Z,26.47
2019-04-20T21:21:36.066Z,23.85
2019-04-20T21:24:03.888Z,23.63
2019-04-20T21:26:35.747Z,20.07
2019-04-20T21:29:03.767Z,17.07
2019-04-20T21:31:36.491Z,25.63
2019-04-20T21:34:13.185Z,20.13
2019-04-20T21:36:41.093Z,17.33
2019-04-20T21:39:20.324Z,18.42
2019-04-20T21:41:54.848Z,18.17
2019-04-20T21:44:25.211Z,19.83
2019-04-20T21:46:54.954Z,18.67
2019-04-20T21:49:39.731Z,18.47
2019-04-20T21:52:03.520Z,19.47
2019-04-20T21:54:34.186Z,18.87
2019-04-20T21:57:09.525Z,18.43
2019-04-20T21:59:44.665Z,19.30
2019-04-20T22:02:20.797Z,20.05
2019-04-20T22:04:45.285Z,21.30
2019-04-20T22:07:16.523Z,22.13
2019-04-20T22:09:52.776Z,23.73
2019-04-20T22:12:20.435Z,28.80
2019-04-20T22:14:58.788Z,28.03
2019-04-20T22:17:30.965Z,31.03
2019-04-20T22:20:12.129Z,32.27
2019-04-20T22:22:50.928Z,39.03
2019-04-20T22:25:28.293Z,35.23
2019-04-20T22:27:40.452Z,35.70
2019-04-20T22:30:12.443Z,30.57
2019-04-20T22:32:46.975Z,28.87
2019-04-20T22:35:18.812Z,27.77
2019-04-20T22:38:01.123Z,22.63
2019-04-20T22:40:32.090Z,23.67
2019-04-20T22:43:02.029Z,22.30
2019-04-20T22:45:34.235Z,25.17
2019-04-20T22:48:09.037Z,25.43
2019-04-20T22:50:50.948Z,26.87
2019-04-20T22:53:22.685Z,29.92
2019-04-20T22:56:11.063Z,30.17
2019-04-20T22:58:33.580Z,26.07
2019-04-20T23:00:57.865Z,25.37
2019-04-20T23:03:25.160Z,25.00
2019-04-20T23:05:56.540Z,21.50
2019-04-20T23:08:28.753Z,22.30
2019-04-20T23:11:00.543Z,23.63
2019-04-20T23:13:36.914Z,23.73
2019-04-20T23:16:07.487Z,24.30
2019-04-20T23:18:40.296Z,23.77
2019-04-20T23:21:15.414Z,18.62
2019-04-20T23:23:43.926Z,23.90
2019-04-20T23:26:24.286Z,25.15
2019-04-20T23:28:52.528Z,24.83
2019-04-20T23:31:25.205Z,21.02
2019-04-20T23:33:56.011Z,22.37
2019-04-20T23:36:36.567Z,19.80
2019-04-20T23:39:02.936Z,21.63
2019-04-20T23:41:33.435Z,24.10
2019-04-20T23:44:23.119Z,29.47
2019-04-20T23:47:21.866Z,25.13
2019-04-20T23:50:12.084Z,20.53
2019-04-20T23:52:49.346Z,22.07
2019-04-20T23:55:04.948Z,23.97
2019-04-20T23:57:33.673Z,24.70
